Time;durP1;ratioP1;P1;durP2;ratioP2;P2;SDS_P1;SDS_P2;PMS_P1;PMS_P2;Temp;Humidity;BMP_temperature;BMP_pressure;BME280_temperature;BME280_humidity;BME280_pressure;Samples;Min_cycle;Max_cycle;Signal;HPM_P1;HPM_P2
2024/02/15 00:00:00;;;;;;;5.20;2.85;;;;;12.90;98938.00;;;;5021227;28;20127;-64
2024/02/15 00:02:29;;;;;;;5.20;2.67;;;;;12.90;98927.00;;;;5037890;28;20077;-64
2024/02/15 00:04:56;;;;;;;6.07;2.67;;;;;12.90;98932.00;;;;5038004;28;20077;-64
2024/02/15 00:07:23;;;;;;;7.30;2.72;;;;;12.90;98931.00;;;;5021012;28;20072;-64
2024/02/15 00:09:50;;;;;;;4.93;2.78;;;;;13.00;98935.00;;;;5021108;28;20084;-64
2024/02/15 00:12:16;;;;;;;6.28;2.75;;;;;13.00;98930.00;;;;5019744;28;20037;-64
2024/02/15 00:14:43;;;;;;;8.35;2.72;;;;;13.00;98935.00;;;;5019808;28;20054;-64
2024/02/15 00:17:11;;;;;;;7.95;2.90;;;;;13.00;98935.00;;;;5020443;28;20502;-64
2024/02/15 00:19:41;;;;;;;8.05;3.53;;;;;13.10;98940.00;;;;5021282;28;20054;-64
2024/02/15 00:22:09;;;;;;;7.05;3.58;;;;;13.00;98928.00;;;;5020341;28;20559;-64
2024/02/15 00:24:38;;;;;;;5.45;2.53;;;;;13.10;98935.00;;;;5019974;28;20053;-63
2024/02/15 00:27:05;;;;;;;5.25;3.40;;;;;13.00;98940.00;;;;5020044;28;20099;-64
2024/02/15 00:29:34;;;;;;;6.85;3.13;;;;;13.10;98934.00;;;;5037966;28;20103;-64
2024/02/15 00:32:03;;;;;;;5.57;2.97;;;;;13.00;98929.00;;;;5037550;28;20041;-64
2024/02/15 00:34:31;;;;;;;6.38;3.20;;;;;12.90;98933.00;;;;5020324;28;20104;-64
2024/02/15 00:36:58;;;;;;;4.47;2.60;;;;;12.90;98930.00;;;;5019967;28;20076;-64
2024/02/15 00:39:25;;;;;;;6.45;2.83;;;;;12.90;98932.00;;;;5020267;28;20049;-64
2024/02/15 00:41:52;;;;;;;7.85;2.70;;;;;12.90;98923.00;;;;5037514;28;20097;-65
2024/02/15 00:44:18;;;;;;;5.63;2.97;;;;;12.90;98925.00;;;;5036248;28;20053;-63
2024/02/15 00:46:46;;;;;;;5.95;3.33;;;;;12.90;98928.00;;;;5036603;28;20482;-64
2024/02/15 00:49:13;;;;;;;6.53;3.00;;;;;13.00;98939.00;;;;5036572;28;20565;-64
2024/02/15 00:51:40;;;;;;;5.70;2.78;;;;;13.00;98925.00;;;;5019475;28;20069;-64
2024/02/15 00:54:07;;;;;;;5.43;3.05;;;;;13.00;98920.00;;;;5019467;28;20041;-64
2024/02/15 00:56:34;;;;;;;3.80;2.47;;;;;12.90;98927.00;;;;5037032;28;20053;-63
2024/02/15 00:59:01;;;;;;;4.70;2.90;;;;;13.00;98926.00;;;;5037016;28;20049;-65
2024/02/15 01:01:27;;;;;;;3.92;3.28;;;;;13.00;98926.00;;;;5036637;28;20053;-65
2024/02/15 01:03:54;;;;;;;8.77;3.30;;;;;13.00;98918.00;;;;5019036;28;20065;-65
2024/02/15 01:06:22;;;;;;;4.82;3.10;;;;;12.90;98918.00;;;;5036022;28;20587;-65
2024/02/15 01:08:49;;;;;;;7.50;2.75;;;;;12.90;98918.00;;;;5034928;28;20050;-64
2024/02/15 01:11:16;;;;;;;4.85;2.38;;;;;13.00;98922.00;;;;5036168;28;20061;-65
2024/02/15 01:13:44;;;;;;;6.75;3.45;;;;;13.00;98913.00;;;;5018914;28;20048;-65
2024/02/15 01:16:11;;;;;;;6.72;3.08;;;;;12.90;98924.00;;;;5036715;28;20116;-64
2024/02/15 01:18:38;;;;;;;5.60;2.70;;;;;12.90;98920.00;;;;5018573;28;20533;-63
2024/02/15 01:21:06;;;;;;;8.57;2.78;;;;;12.90;98919.00;;;;5018803;28;20049;-64
2024/02/15 01:23:35;;;;;;;9.18;3.22;;;;;12.90;98926.00;;;;5019971;28;20041;-64
2024/02/15 01:26:02;;;;;;;4.40;2.80;;;;;12.90;98923.00;;;;5003035;28;20079;-64
2024/02/15 01:28:29;;;;;;;4.55;2.60;;;;;12.90;98922.00;;;;5002537;28;20064;-64
2024/02/15 01:30:55;;;;;;;5.93;2.90;;;;;12.90;98919.00;;;;5018040;28;20060;-64
2024/02/15 01:33:22;;;;;;;5.60;2.78;;;;;12.90;98928.00;;;;5035896;28;20071;-64
2024/02/15 01:35:49;;;;;;;6.22;2.78;;;;;12.90;98928.00;;;;5018174;28;20049;-64
2024/02/15 01:38:16;;;;;;;4.57;2.53;;;;;12.80;98919.00;;;;5018146;28;20053;-64
2024/02/15 01:40:43;;;;;;;4.55;2.30;;;;;12.80;98923.00;;;;5018123;28;20049;-64
2024/02/15 01:43:09;;;;;;;5.38;2.40;;;;;12.80;98926.00;;;;5018229;28;20049;-64
2024/02/15 01:45:36;;;;;;;5.40;2.78;;;;;12.80;98923.00;;;;5018389;28;20128;-64
2024/02/15 01:48:04;;;;;;;6.28;2.75;;;;;12.80;98919.00;;;;5018374;28;20073;-64
2024/02/15 01:50:34;;;;;;;4.40;2.38;;;;;12.80;98916.00;;;;5018407;28;20402;-64
2024/02/15 01:53:04;;;;;;;4.35;2.40;;;;;12.90;98922.00;;;;5018152;28;20461;-64
2024/02/15 01:55:33;;;;;;;4.65;2.67;;;;;12.90;98912.00;;;;5035637;28;20049;-63
2024/02/15 01:58:01;;;;;;;6.55;2.67;;;;;12.90;98919.00;;;;5018440;28;20136;-63
2024/02/15 02:00:30;;;;;;;6.28;2.60;;;;;12.90;98918.00;;;;5018606;28;20100;-63
2024/02/15 02:03:02;;;;;;;4.82;2.60;;;;;13.00;98911.00;;;;5018274;28;20056;-63
2024/02/15 02:05:30;;;;;;;7.97;2.60;;;;;13.00;98903.00;;;;5020488;28;20547;-63
2024/02/15 02:08:01;;;;;;;7.57;2.47;;;;;13.00;98899.00;;;;5041242;28;20513;-64
2024/02/15 02:10:32;;;;;;;5.28;2.72;;;;;13.00;98917.00;;;;5040921;28;20064;-64
2024/02/15 02:13:02;;;;;;;7.18;3.20;;;;;13.10;98908.00;;;;5036193;28;20049;-64
2024/02/15 02:15:32;;;;;;;6.60;3.03;;;;;13.10;98910.00;;;;5018779;28;20092;-64
2024/02/15 02:18:00;;;;;;;5.68;2.47;;;;;13.10;98906.00;;;;5017938;28;20045;-64
2024/02/15 02:20:27;;;;;;;4.50;3.03;;;;;13.10;98909.00;;;;5018143;28;20056;-64
2024/02/15 02:23:07;;;;;;;4.97;2.78;;;;;13.10;98910.00;;;;5035088;28;20038;-64
2024/02/15 02:25:34;;;;;;;6.22;2.75;;;;;13.10;98906.00;;;;5035427;28;20041;-63
2024/02/15 02:28:01;;;;;;;8.50;3.22;;;;;13.10;98909.00;;;;5020031;28;20068;-63
2024/02/15 02:30:32;;;;;;;5.35;2.55;;;;;13.00;98911.00;;;;4986706;28;20046;-63
2024/02/15 02:32:59;;;;;;;8.32;3.63;;;;;13.10;98903.00;;;;5018335;28;20041;-64
2024/02/15 02:35:27;;;;;;;6.10;3.08;;;;;13.10;98901.00;;;;5018701;28;20477;-64
2024/02/15 02:37:55;;;;;;;4.40;2.97;;;;;13.10;98895.00;;;;5036661;28;20116;-63
2024/02/15 02:40:21;;;;;;;5.43;3.15;;;;;13.10;98891.00;;;;5022118;28;20041;-63
2024/02/15 02:42:53;;;;;;;4.68;3.00;;;;;13.00;98898.00;;;;5022614;28;20046;-64
2024/02/15 02:45:22;;;;;;;5.97;3.25;;;;;13.10;98898.00;;;;5005685;28;20049;-63
2024/02/15 02:47:50;;;;;;;4.95;2.92;;;;;13.00;98899.00;;;;5037341;28;20056;-63
2024/02/15 02:50:23;;;;;;;6.55;3.35;;;;;13.00;98894.00;;;;5038924;28;20045;-64
2024/02/15 02:52:51;;;;;;;5.90;2.50;;;;;13.00;98903.00;;;;5036702;28;20136;-64
2024/02/15 02:55:18;;;;;;;7.78;2.72;;;;;12.90;98896.00;;;;5037048;28;20050;-64
2024/02/15 02:57:45;;;;;;;6.55;2.72;;;;;12.90;98889.00;;;;5036377;28;20061;-64
2024/02/15 03:00:16;;;;;;;6.13;2.78;;;;;12.90;98895.00;;;;5018205;28;20497;-64
2024/02/15 03:02:45;;;;;;;5.75;2.63;;;;;12.90;98892.00;;;;5034621;28;20044;-64
2024/02/15 03:05:13;;;;;;;9.07;2.83;;;;;12.90;98896.00;;;;5035598;28;20045;-64
2024/02/15 03:07:40;;;;;;;6.35;2.88;;;;;12.90;98893.00;;;;5017857;28;20057;-64
2024/02/15 03:10:08;;;;;;;4.95;2.75;;;;;12.90;98895.00;;;;5034707;28;20525;-64
2024/02/15 03:12:36;;;;;;;6.57;2.67;;;;;12.90;98895.00;;;;5017644;28;20042;-64
2024/02/15 03:15:04;;;;;;;8.20;2.78;;;;;13.00;98905.00;;;;5035823;28;20049;-64
2024/02/15 03:17:33;;;;;;;6.25;3.35;;;;;12.90;98901.00;;;;5001473;28;20053;-64
2024/02/15 03:20:00;;;;;;;3.65;2.30;;;;;12.90;98899.00;;;;5001826;28;20501;-64
2024/02/15 03:22:29;;;;;;;7.28;3.13;;;;;12.90;98897.00;;;;5017940;28;20455;-64
2024/02/15 03:24:56;;;;;;;6.25;2.67;;;;;12.90;98893.00;;;;5017919;28;20429;-64
2024/02/15 03:27:23;;;;;;;5.65;2.97;;;;;12.90;98891.00;;;;5017723;28;20096;-64
2024/02/15 03:29:51;;;;;;;7.10;2.90;;;;;12.90;98882.00;;;;5018393;28;20450;-64
2024/02/15 03:32:18;;;;;;;4.53;2.63;;;;;12.90;98885.00;;;;5035886;28;20049;-64
2024/02/15 03:34:45;;;;;;;5.35;2.80;;;;;13.00;98877.00;;;;5038603;28;20068;-64
2024/02/15 03:37:12;;;;;;;4.53;2.40;;;;;13.00;98882.00;;;;5021673;28;20087;-64
2024/02/15 03:39:38;;;;;;;12.70;3.33;;;;;13.00;98884.00;;;;5021119;28;20504;-63
2024/02/15 03:42:05;;;;;;;4.95;2.58;;;;;13.00;98886.00;;;;5022858;28;20060;-64
2024/02/15 03:44:32;;;;;;;4.47;2.67;;;;;13.00;98886.00;;;;5023086;28;20052;-64
2024/02/15 03:46:59;;;;;;;6.00;2.35;;;;;13.10;98885.00;;;;5024560;28;20128;-64
2024/02/15 03:49:26;;;;;;;3.78;2.47;;;;;13.00;98883.00;;;;5042438;28;20044;-63
2024/02/15 03:51:54;;;;;;;6.28;2.20;;;;;13.00;98887.00;;;;5023502;28;20091;-63
2024/02/15 03:54:23;;;;;;;5.85;2.13;;;;;13.10;98886.00;;;;5022962;28;20065;-63
2024/02/15 03:56:54;;;;;;;5.00;2.33;;;;;13.00;98874.00;;;;5023883;28;20045;-63
2024/02/15 03:59:27;;;;;;;4.05;2.30;;;;;13.00;98890.00;;;;5023559;28;20057;-65
2024/02/15 04:01:54;;;;;;;8.35;2.60;;;;;13.00;98886.00;;;;5023973;28;20049;-63
2024/02/15 04:04:22;;;;;;;5.85;2.35;;;;;13.00;98888.00;;;;5023829;28;20044;-63
2024/02/15 04:06:52;;;;;;;6.07;2.67;;;;;13.10;98887.00;;;;5023293;28;20049;-63
2024/02/15 04:09:20;;;;;;;3.85;2.30;;;;;13.00;98883.00;;;;5021590;28;20050;-63
2024/02/15 04:11:52;;;;;;;5.38;2.53;;;;;13.00;98885.00;;;;5021492;28;20061;-64
2024/02/15 04:14:20;;;;;;;4.10;2.55;;;;;13.00;98881.00;;;;5022697;28;20037;-65
2024/02/15 04:16:47;;;;;;;6.05;2.47;;;;;13.00;98881.00;;;;5009738;28;20045;-64
2024/02/15 04:19:13;;;;;;;6.93;2.45;;;;;13.00;98883.00;;;;5021381;28;20049;-64
2024/02/15 04:21:44;;;;;;;5.90;2.50;;;;;13.10;98883.00;;;;5038978;28;20048;-64
2024/02/15 04:24:10;;;;;;;4.10;2.25;;;;;13.10;98876.00;;;;5020477;28;20060;-64
2024/02/15 04:26:38;;;;;;;18.98;10.20;;;;;13.10;98878.00;;;;5004218;28;20053;-64
2024/02/15 04:29:08;;;;;;;5.00;2.92;;;;;13.20;98872.00;;;;5021275;28;20053;-64
2024/02/15 04:31:39;;;;;;;6.13;3.35;;;;;13.10;98873.00;;;;5020157;28;20080;-64
2024/02/15 04:34:06;;;;;;;4.32;2.80;;;;;13.10;98877.00;;;;5039066;28;20046;-64
2024/02/15 04:36:34;;;;;;;6.03;2.42;;;;;13.10;98872.00;;;;5022183;28;20046;-64
2024/02/15 04:39:04;;;;;;;9.27;4.30;;;;;13.20;98876.00;;;;5021127;28;20481;-64
2024/02/15 04:41:31;;;;;;;4.90;2.92;;;;;13.10;98870.00;;;;5021269;28;20049;-64
2024/02/15 04:43:58;;;;;;;4.45;3.03;;;;;13.10;98873.00;;;;5004460;28;20045;-64
2024/02/15 04:46:25;;;;;;;5.68;3.67;;;;;13.00;98873.00;;;;5020361;28;20435;-64
2024/02/15 04:48:51;;;;;;;5.65;2.45;;;;;13.00;98878.00;;;;5021168;28;20041;-65
2024/02/15 04:51:19;;;;;;;6.55;2.03;;;;;13.00;98879.00;;;;5037827;28;20056;-65
2024/02/15 04:53:48;;;;;;;7.55;2.47;;;;;13.10;98872.00;;;;5038215;28;20049;-65
2024/02/15 04:56:16;;;;;;;4.30;2.65;;;;;13.10;98866.00;;;;5020091;28;20148;-64
2024/02/15 04:58:47;;;;;;;5.63;2.70;;;;;13.20;98863.00;;;;5038551;28;20049;-65
2024/02/15 05:01:15;;;;;;;6.93;2.75;;;;;13.30;98868.00;;;;5022500;28;20443;-65
2024/02/15 05:03:45;;;;;;;5.53;2.60;;;;;13.30;98865.00;;;;5038827;28;20049;-65
2024/02/15 05:06:12;;;;;;;6.97;2.45;;;;;13.20;98858.00;;;;5021437;28;20064;-65
2024/02/15 05:08:42;;;;;;;4.13;2.40;;;;;13.20;98862.00;;;;5037291;28;20052;-64
2024/02/15 05:11:19;;;;;;;4.50;2.72;;;;;13.10;98853.00;;;;5020524;28;20048;-64
2024/02/15 05:13:46;;;;;;;8.25;4.22;;;;;13.10;98857.00;;;;5039058;28;20490;-65
2024/02/15 05:16:13;;;;;;;4.40;2.42;;;;;13.00;98850.00;;;;5020551;28;20139;-65
2024/02/15 05:18:40;;;;;;;3.90;2.20;;;;;13.00;98849.00;;;;5021052;28;20049;-64
2024/02/15 05:21:11;;;;;;;5.05;2.95;;;;;13.00;98841.00;;;;5023318;28;20049;-64
2024/02/15 05:23:41;;;;;;;6.63;2.97;;;;;12.80;98842.00;;;;5024182;28;20061;-64
2024/02/15 05:26:09;;;;;;;6.55;3.10;;;;;12.60;98847.00;;;;5022785;28;20045;-64
2024/02/15 05:28:35;;;;;;;7.22;3.72;;;;;12.60;98841.00;;;;5021633;28;20551;-64
2024/02/15 05:31:20;;;;;;;6.10;4.07;;;;;12.70;98845.00;;;;5038979;28;20049;-65
2024/02/15 05:33:47;;;;;;;6.78;3.20;;;;;12.60;98845.00;;;;5040850;28;20461;-65
2024/02/15 05:36:20;;;;;;;6.15;3.05;;;;;12.80;98838.00;;;;5024897;28;20041;-65
2024/02/15 05:38:48;;;;;;;6.47;3.85;;;;;12.80;98843.00;;;;5042725;28;20052;-64
2024/02/15 05:41:16;;;;;;;10.65;3.83;;;;;12.70;98847.00;;;;5046706;28;20045;-65
2024/02/15 05:43:42;;;;;;;6.72;2.72;;;;;12.70;98835.00;;;;5048149;28;20065;-64
2024/02/15 05:46:10;;;;;;;8.65;4.18;;;;;12.80;98842.00;;;;5028801;28;20041;-64
2024/02/15 05:48:37;;;;;;;11.02;3.08;;;;;12.90;98841.00;;;;5047406;28;20042;-64
2024/02/15 05:51:05;;;;;;;5.95;3.75;;;;;12.90;98833.00;;;;5029779;28;20046;-65
2024/02/15 05:53:35;;;;;;;6.30;3.70;;;;;12.80;98835.00;;;;5046061;28;20105;-65
2024/02/15 05:56:04;;;;;;;6.93;3.33;;;;;12.70;98815.00;;;;5027685;28;20072;-65
2024/02/15 05:58:32;;;;;;;5.82;3.00;;;;;12.60;98812.00;;;;5044496;28;20042;-66
2024/02/15 06:01:01;;;;;;;7.75;3.88;;;;;12.60;98805.00;;;;5044011;28;20041;-65
2024/02/15 06:03:29;;;;;;;30.63;17.23;;;;;12.50;98803.00;;;;5024964;28;20109;-64
2024/02/15 06:05:59;;;;;;;7.90;4.70;;;;;12.40;98800.00;;;;5003888;28;20052;-64
2024/02/15 06:08:27;;;;;;;9.50;3.42;;;;;12.30;98797.00;;;;5020655;28;20134;-66
2024/02/15 06:10:54;;;;;;;7.38;3.83;;;;;12.20;98794.00;;;;4987534;28;20045;-65
2024/02/15 06:13:21;;;;;;;7.32;4.07;;;;;12.10;98793.00;;;;5019545;28;20048;-65
2024/02/15 06:15:52;;;;;;;9.32;4.75;;;;;12.20;98788.00;;;;5037010;28;20045;-65
2024/02/15 06:18:31;;;;;;;7.80;3.63;;;;;12.10;98785.00;;;;5004051;28;20072;-65
2024/02/15 06:20:59;;;;;;;5.30;3.63;;;;;12.10;98793.00;;;;5019623;28;20494;-65
2024/02/15 06:23:27;;;;;;;6.63;3.80;;;;;12.10;98792.00;;;;5019428;28;20048;-65
2024/02/15 06:25:58;;;;;;;8.10;3.88;;;;;12.10;98785.00;;;;5019450;28;20444;-65
2024/02/15 06:39:44;;;;;;;6.65;3.28;;;;;11.80;98800.00;;;;5018710;28;20057;-64
2024/02/15 06:42:17;;;;;;;5.47;3.60;;;;;11.80;98798.00;;;;5018510;28;20124;-66
2024/02/15 06:44:46;;;;;;;6.10;3.35;;;;;11.80;98809.00;;;;5036566;28;20041;-64
2024/02/15 06:47:13;;;;;;;4.63;3.15;;;;;11.80;98795.00;;;;5035690;28;20045;-65
2024/02/15 06:49:40;;;;;;;7.88;3.20;;;;;11.80;98797.00;;;;5035789;28;20549;-65
2024/02/15 06:52:08;;;;;;;6.88;3.58;;;;;11.80;98799.00;;;;5036940;28;20494;-65
2024/02/15 06:54:38;;;;;;;8.65;4.43;;;;;11.90;98804.00;;;;5018349;28;20071;-63
2024/02/15 06:57:05;;;;;;;8.32;3.83;;;;;12.00;98812.00;;;;5036023;28;20080;-65
2024/02/15 06:59:34;;;;;;;8.52;4.60;;;;;11.90;98799.00;;;;5034930;28;20077;-64
2024/02/15 07:02:01;;;;;;;7.55;3.63;;;;;11.90;98794.00;;;;5001787;28;20077;-65
2024/02/15 07:04:29;;;;;;;8.32;4.18;;;;;11.90;98801.00;;;;5017840;28;20490;-63
2024/02/15 07:06:56;;;;;;;6.43;3.40;;;;;11.90;98799.00;;;;5018534;28;20414;-65
2024/02/15 07:09:24;;;;;;;8.10;4.00;;;;;11.90;98795.00;;;;5021947;28;20053;-65
2024/02/15 07:11:51;;;;;;;6.80;4.25;;;;;11.90;98801.00;;;;5023078;28;20076;-65
2024/02/15 07:14:19;;;;;;;5.80;3.50;;;;;11.80;98801.00;;;;5023448;28;20049;-65
2024/02/15 07:16:47;;;;;;;8.00;4.22;;;;;11.80;98800.00;;;;5024183;28;20053;-64
2024/02/15 07:19:15;;;;;;;7.65;3.50;;;;;11.80;98804.00;;;;5042529;28;20049;-65
2024/02/15 07:21:42;;;;;;;6.32;3.50;;;;;11.90;98801.00;;;;5043247;28;20045;-65
2024/02/15 07:24:12;;;;;;;9.10;4.60;;;;;11.90;98798.00;;;;5025608;28;20041;-64
2024/02/15 07:26:39;;;;;;;13.05;4.65;;;;;11.90;98799.00;;;;5008957;28;20498;-63
2024/02/15 07:29:05;;;;;;;6.78;4.07;;;;;12.00;98800.00;;;;5025448;28;20049;-63
2024/02/15 07:31:33;;;;;;;9.98;3.55;;;;;12.10;98804.00;;;;5042970;28;20045;-64
2024/02/15 07:34:00;;;;;;;5.07;3.47;;;;;12.20;98815.00;;;;5042666;28;20501;-64
2024/02/15 07:36:27;;;;;;;6.00;4.07;;;;;12.20;98808.00;;;;5026959;28;20473;-64
2024/02/15 07:38:57;;;;;;;7.32;3.53;;;;;12.30;98811.00;;;;5025164;28;20501;-65
2024/02/15 07:41:24;;;;;;;10.55;3.88;;;;;12.40;98815.00;;;;5041719;28;20119;-64
2024/02/15 07:43:54;;;;;;;8.68;4.20;;;;;12.50;98815.00;;;;5023934;28;20038;-64
2024/02/15 07:46:22;;;;;;;4.47;3.22;;;;;12.50;98815.00;;;;5022759;28;20110;-64
2024/02/15 07:48:49;;;;;;;6.93;3.78;;;;;12.60;98830.00;;;;5023800;28;20056;-64
2024/02/15 07:51:19;;;;;;;5.30;3.28;;;;;12.70;98825.00;;;;5020903;28;20151;-63
2024/02/15 07:53:47;;;;;;;5.70;3.55;;;;;12.80;98832.00;;;;5036071;28;20107;-63
2024/02/15 07:56:15;;;;;;;7.38;3.55;;;;;12.90;98835.00;;;;5037056;28;20136;-63
2024/02/15 07:58:46;;;;;;;5.80;3.83;;;;;13.00;98836.00;;;;5037000;28;20069;-63
2024/02/15 08:01:22;;;;;;;9.10;4.50;;;;;13.20;98833.00;;;;5037386;28;20495;-63
2024/02/15 08:03:52;;;;;;;5.95;3.58;;;;;13.20;98832.00;;;;5020146;28;20490;-63
2024/02/15 08:06:23;;;;;;;9.35;4.18;;;;;13.20;98829.00;;;;5019803;28;20120;-63
2024/02/15 08:08:52;;;;;;;8.10;3.58;;;;;13.50;98837.00;;;;5037997;28;20041;-61
2024/02/15 08:11:19;;;;;;;7.63;3.45;;;;;13.70;98833.00;;;;5038968;28;20067;-61
2024/02/15 08:13:49;;;;;;;5.85;3.67;;;;;13.70;98843.00;;;;5039016;28;20041;-62
2024/02/15 08:16:16;;;;;;;5.18;3.35;;;;;13.70;98835.00;;;;5039774;28;20052;-64
2024/02/15 08:18:43;;;;;;;8.13;4.10;;;;;13.80;98837.00;;;;5024047;28;20084;-64
2024/02/15 08:21:10;;;;;;;4.15;2.88;;;;;13.80;98837.00;;;;5042924;28;20052;-65
2024/02/15 08:23:38;;;;;;;6.57;2.65;;;;;13.90;98831.00;;;;5042920;28;20041;-63
2024/02/15 08:26:05;;;;;;;6.03;2.97;;;;;14.00;98837.00;;;;5043818;28;20061;-63
2024/02/15 08:28:31;;;;;;;4.85;2.50;;;;;14.10;98829.00;;;;5043483;28;20076;-63
2024/02/15 08:30:58;;;;;;;8.70;5.38;;;;;14.20;98829.00;;;;5026158;28;20045;-64
2024/02/15 08:33:28;;;;;;;11.88;6.60;;;;;14.10;98817.00;;;;5043773;28;20045;-63
2024/02/15 08:35:55;;;;;;;6.55;4.88;;;;;14.20;98826.00;;;;5044565;28;20042;-62
2024/02/15 08:38:23;;;;;;;6.18;3.60;;;;;14.30;98817.00;;;;5044024;28;20505;-63
2024/02/15 08:40:49;;;;;;;6.45;3.00;;;;;14.40;98815.00;;;;5043978;28;20448;-63
2024/02/15 08:43:16;;;;;;;5.40;3.05;;;;;14.30;98808.00;;;;5044450;28;20041;-62
2024/02/15 08:45:43;;;;;;;4.13;2.55;;;;;14.30;98816.00;;;;5044213;28;20037;-63
2024/02/15 08:48:11;;;;;;;6.28;2.38;;;;;14.30;98814.00;;;;5044824;28;20052;-62
2024/02/15 08:50:38;;;;;;;6.00;2.47;;;;;14.30;98816.00;;;;5044293;28;20053;-63
2024/02/15 08:53:08;;;;;;;6.40;2.45;;;;;14.40;98820.00;;;;5043197;28;20053;-63
2024/02/15 08:55:35;;;;;;;6.55;2.90;;;;;14.40;98808.00;;;;5027172;28;20072;-62
2024/02/15 08:58:03;;;;;;;6.90;2.90;;;;;14.40;98809.00;;;;5044071;28;20049;-62
2024/02/15 09:00:31;;;;;;;8.90;3.90;;;;;14.30;98805.00;;;;5026539;28;20093;-61
2024/02/15 09:02:58;;;;;;;7.30;3.80;;;;;14.30;98801.00;;;;5041911;28;20174;-62
2024/02/15 09:05:25;;;;;;;9.48;4.38;;;;;14.50;98801.00;;;;5042351;28;20068;-62
2024/02/15 09:07:52;;;;;;;8.25;5.18;;;;;14.50;98801.00;;;;5042886;28;20379;-63
2024/02/15 09:10:19;;;;;;;8.50;4.65;;;;;14.70;98807.00;;;;5041925;28;20132;-62
2024/02/15 09:12:48;;;;;;;4.68;3.25;;;;;14.80;98804.00;;;;5042550;28;20049;-63
2024/02/15 09:15:16;;;;;;;8.35;4.32;;;;;14.90;98802.00;;;;5023966;28;20068;-63
2024/02/15 09:17:45;;;;;;;5.72;3.65;;;;;15.00;98792.00;;;;5040283;28;20072;-62
2024/02/15 09:20:14;;;;;;;7.57;4.57;;;;;15.00;98786.00;;;;5041523;28;20056;-62
2024/02/15 09:22:48;;;;;;;6.40;3.90;;;;;14.90;98791.00;;;;5042494;28;20103;-62
2024/02/15 09:25:15;;;;;;;7.20;3.63;;;;;15.00;98779.00;;;;5024237;28;20048;-63
2024/02/15 09:27:42;;;;;;;6.55;3.00;;;;;15.30;98777.00;;;;5022868;28;20099;-62
2024/02/15 09:30:09;;;;;;;4.13;2.50;;;;;15.40;98780.00;;;;5040835;28;20490;-63
2024/02/15 09:32:37;;;;;;;5.97;2.53;;;;;15.60;98778.00;;;;5023960;28;20042;-61
2024/02/15 09:35:08;;;;;;;6.20;3.15;;;;;15.80;98781.00;;;;5041504;28;20064;-62
2024/02/15 09:37:43;;;;;;;7.57;3.85;;;;;15.90;98780.00;;;;5024805;28;20056;-62
2024/02/15 09:40:16;;;;;;;9.02;5.30;;;;;15.90;98777.00;;;;5041419;28;20068;-63
2024/02/15 09:42:47;;;;;;;8.57;3.40;;;;;16.00;98780.00;;;;5040672;28;20041;-62
2024/02/15 09:45:18;;;;;;;4.57;2.55;;;;;16.00;98776.00;;;;5038814;28;20042;-62
2024/02/15 09:47:45;;;;;;;5.93;2.65;;;;;16.00;98780.00;;;;5020519;28;20084;-62
2024/02/15 09:50:14;;;;;;;8.90;2.25;;;;;15.90;98779.00;;;;5020078;28;20501;-62
2024/02/15 09:52:49;;;;;;;5.80;2.75;;;;;16.00;98771.00;;;;5037625;28;20128;-61
2024/02/15 09:55:16;;;;;;;8.43;4.70;;;;;16.10;98773.00;;;;5018982;28;20421;-62
2024/02/15 09:57:46;;;;;;;8.90;4.60;;;;;16.10;98770.00;;;;5035933;28;20092;-63
2024/02/15 10:00:16;;;;;;;5.28;2.05;;;;;16.10;98770.00;;;;5034534;28;20054;-62
2024/02/15 10:02:44;;;;;;;6.20;4.38;;;;;16.20;98772.00;;;;5037514;28;20076;-61
2024/02/15 10:05:12;;;;;;;6.75;3.67;;;;;16.30;98771.00;;;;5019983;28;20048;-62
2024/02/15 10:07:46;;;;;;;5.47;3.60;;;;;16.30;98764.00;;;;5037283;28;20045;-61
2024/02/15 10:10:20;;;;;;;;;;;;;16.30;98771.00;;;;5004455;28;20045;-61
2024/02/15 10:12:48;;;;;;;14.43;6.32;;;;;16.40;98763.00;;;;5036871;28;19967;-61
2024/02/15 10:15:35;;;;;;;15.82;6.05;;;;;16.60;98770.00;;;;5019191;28;20037;-62
2024/02/15 10:18:05;;;;;;;7.55;4.60;;;;;16.70;98767.00;;;;5035847;28;20099;-62
2024/02/15 10:20:35;;;;;;;5.50;3.08;;;;;16.70;98768.00;;;;5019240;28;20048;-63
2024/02/15 10:23:06;;;;;;;5.00;1.65;;;;;16.90;98775.00;;;;5018788;28;20095;-62
2024/02/15 10:25:33;;;;;;;4.18;1.90;;;;;17.00;98769.00;;;;5018927;28;20050;-62
2024/02/15 10:28:15;;;;;;;4.40;1.70;;;;;17.10;98763.00;;;;5036824;28;20136;-62
2024/02/15 10:30:44;;;;;;;4.10;1.55;;;;;17.10;98758.00;;;;5036808;28;20490;-62
2024/02/15 10:33:39;;;;;;;3.22;1.65;;;;;17.00;98750.00;;;;5036902;28;20045;-62
2024/02/15 10:36:08;;;;;;;3.28;1.25;;;;;16.90;98748.00;;;;5034423;28;20058;-63
2024/02/15 10:38:35;;;;;;;3.60;1.23;;;;;17.10;98749.00;;;;5036194;28;20041;-63
2024/02/15 10:41:05;;;;;;;1.88;1.23;;;;;17.00;98749.00;;;;5017854;28;20064;-62
2024/02/15 10:43:37;;;;;;;3.47;1.13;;;;;17.00;98744.00;;;;5021435;28;20413;-62
2024/02/15 10:46:04;;;;;;;2.95;1.40;;;;;17.00;98733.00;;;;5041501;28;20045;-62
2024/02/15 10:48:33;;;;;;;3.75;1.30;;;;;17.00;98734.00;;;;5023203;28;20136;-62
2024/02/15 10:51:03;;;;;;;1.55;0.98;;;;;17.20;98734.00;;;;5040147;28;20076;-62
2024/02/15 10:53:35;;;;;;;2.22;1.20;;;;;17.30;98723.00;;;;5040197;28;20041;-63
2024/02/15 10:56:03;;;;;;;3.50;1.40;;;;;17.30;98728.00;;;;5040253;28;20071;-62
2024/02/15 10:58:35;;;;;;;2.70;1.10;;;;;17.40;98719.00;;;;5038260;28;20041;-62
2024/02/15 11:01:08;;;;;;;2.63;1.25;;;;;17.40;98716.00;;;;5037590;28;20099;-63
2024/02/15 11:03:36;;;;;;;4.00;1.23;;;;;17.30;98713.00;;;;5036280;28;20081;-65
2024/02/15 17:55:14;;;;;;;6.75;3.10;;;;;15.00;98401.00;;;;4983056;23;20532;-68
2024/02/15 17:57:42;;;;;;;7.15;3.35;;;;;15.00;98402.00;;;;4898728;29;20052;-69
2024/02/15 18:00:15;;;;;;;8.18;3.70;;;;;14.90;98401.00;;;;4898813;29;20079;-69
2024/02/15 18:02:51;;;;;;;5.32;3.80;;;;;14.90;98406.00;;;;4897351;29;20108;-69
2024/02/15 18:05:18;;;;;;;7.97;3.65;;;;;14.90;98405.00;;;;4898496;29;20045;-69
2024/02/15 18:07:45;;;;;;;6.70;2.80;;;;;14.80;98403.00;;;;4897263;29;20056;-69
2024/02/15 18:10:14;;;;;;;7.40;3.50;;;;;14.80;98399.00;;;;4898443;29;20454;-70
2024/02/15 18:12:42;;;;;;;5.85;3.35;;;;;14.80;98401.00;;;;4898544;29;20087;-69
2024/02/15 18:15:13;;;;;;;7.93;4.47;;;;;14.80;98405.00;;;;4898564;29;20067;-69
2024/02/15 18:17:44;;;;;;;7.97;3.83;;;;;14.80;98402.00;;;;4898667;29;20113;-68
2024/02/15 18:20:12;;;;;;;9.50;4.50;;;;;14.70;98393.00;;;;4897634;29;20044;-73
2024/02/15 18:22:42;;;;;;;7.13;4.18;;;;;14.70;98390.00;;;;4897218;29;20104;-69
2024/02/15 18:25:09;;;;;;;7.05;3.92;;;;;14.70;98393.00;;;;4896772;29;20148;-69
2024/02/15 18:27:36;;;;;;;6.10;3.95;;;;;14.70;98382.00;;;;4898465;29;20409;-68
2024/02/15 18:30:10;;;;;;;12.05;6.88;;;;;14.70;98380.00;;;;4898329;29;20569;-69
2024/02/15 18:32:40;;;;;;;11.40;4.75;;;;;14.60;98384.00;;;;4896985;29;20063;-67
2024/02/15 18:35:11;;;;;;;8.55;4.47;;;;;14.60;98375.00;;;;4898682;29;20052;-68
2024/02/15 18:37:41;;;;;;;5.82;3.10;;;;;14.50;98366.00;;;;4914190;29;20113;-66
2024/02/15 18:40:08;;;;;;;3.80;3.05;;;;;14.50;98356.00;;;;4900457;29;20049;-69
2024/02/15 18:42:49;;;;;;;6.28;3.63;;;;;14.40;98358.00;;;;4897624;29;20052;-68
2024/02/15 18:45:17;;;;;;;9.52;5.75;;;;;14.50;98361.00;;;;4896922;29;20553;-69
2024/02/15 18:47:43;;;;;;;8.65;5.60;;;;;14.50;98368.00;;;;4898447;29;20053;-69
2024/02/15 18:50:10;;;;;;;10.55;6.97;;;;;14.50;98372.00;;;;4898724;29;20512;-67
2024/02/15 18:52:37;;;;;;;21.75;19.52;;;;;14.50;98378.00;;;;4897221;29;20048;-67
2024/02/15 18:55:04;;;;;;;31.85;22.27;;;;;14.50;98374.00;;;;4897552;29;20074;-67
2024/02/15 18:57:30;;;;;;;12.32;8.85;;;;;14.50;98367.00;;;;4912414;29;20499;-67
2024/02/15 18:59:57;;;;;;;9.18;6.25;;;;;14.40;98376.00;;;;4889347;29;20053;-67
2024/02/15 19:02:29;;;;;;;9.23;5.60;;;;;14.40;98375.00;;;;4879727;29;20049;-66
2024/02/15 19:05:03;;;;;;;7.90;6.50;;;;;14.60;98368.00;;;;4897039;29;20049;-68
2024/02/15 19:07:30;;;;;;;11.13;7.40;;;;;14.60;98371.00;;;;4883202;29;20059;-67
2024/02/15 19:09:57;;;;;;;8.55;5.78;;;;;14.80;98364.00;;;;4882566;29;20300;-67
2024/02/15 19:12:23;;;;;;;14.15;8.80;;;;;14.80;98363.00;;;;4897051;29;20053;-67
2024/02/15 19:14:50;;;;;;;29.73;14.10;;;;;14.90;98365.00;;;;4882579;29;20052;-67
2024/02/15 19:17:18;;;;;;;38.10;17.88;;;;;15.00;98365.00;;;;4882712;29;20530;-67
2024/02/15 19:19:45;;;;;;;60.30;25.85;;;;;15.00;98365.00;;;;4881757;29;20459;-67
2024/02/15 19:22:12;;;;;;;51.75;23.20;;;;;15.00;98363.00;;;;4882962;29;20049;-67